Terminal Aerodrome Forecast
Issued by NWS Wilmington, NC

Home | Current Version | Previous Version | Text Only | Print | Product List | Glossary On
Versions: 1 2 3 4 5 6 7 8 9 10 11 12 13 14
125
FTUS42 KILM 232325
TAFFLO
TAF
KFLO 232325Z 2400/2424 08011KT 6SM -SHRA OVC006
     FM240300 09011KT P6SM OVC006
      TEMPO 2403/2407 2SM SHRA OVC005
     FM240900 08009KT 3SM SHRA OVC008
     FM242100 09006KT 2SM SHRA OVC003=

USA.gov is the U.S. government's official web portal to all federal, state and local government web resources and services.